sensor_id;sensor_type;location;lat;lon;timestamp;temperature;humidity
34644;DHT22;26931;43.498;-1.506;2022-07-18T00:01:37;28.30;57.50
34644;DHT22;26931;43.498;-1.506;2022-07-18T00:04:03;28.20;57.50
34644;DHT22;26931;43.498;-1.506;2022-07-18T00:06:28;28.20;58.10
34644;DHT22;26931;43.498;-1.506;2022-07-18T00:08:54;28.10;57.50
34644;DHT22;26931;43.498;-1.506;2022-07-18T00:11:21;28.10;57.60
34644;DHT22;26931;43.498;-1.506;2022-07-18T00:13:47;28.10;58.20
34644;DHT22;26931;43.498;-1.506;2022-07-18T00:16:18;28.30;57.70
34644;DHT22;26931;43.498;-1.506;2022-07-18T00:18:44;28.10;57.60
34644;DHT22;26931;43.498;-1.506;2022-07-18T00:21:12;28.10;57.60
34644;DHT22;26931;43.498;-1.506;2022-07-18T00:23:38;28.30;57.80
34644;DHT22;26931;43.498;-1.506;2022-07-18T00:26:04;28.00;57.60
34644;DHT22;26931;43.498;-1.506;2022-07-18T00:28:30;28.00;57.80
34644;DHT22;26931;43.498;-1.506;2022-07-18T00:30:56;27.90;57.90
34644;DHT22;26931;43.498;-1.506;2022-07-18T00:33:22;27.90;58.00
34644;DHT22;26931;43.498;-1.506;2022-07-18T00:35:48;27.90;58.20
34644;DHT22;26931;43.498;-1.506;2022-07-18T00:38:14;27.90;58.30
34644;DHT22;26931;43.498;-1.506;2022-07-18T00:40:41;27.80;58.40
34644;DHT22;26931;43.498;-1.506;2022-07-18T00:43:07;27.70;58.60
34644;DHT22;26931;43.498;-1.506;2022-07-18T00:45:32;27.60;58.90
34644;DHT22;26931;43.498;-1.506;2022-07-18T00:47:58;27.60;59.20
34644;DHT22;26931;43.498;-1.506;2022-07-18T00:50:24;27.40;59.30
34644;DHT22;26931;43.498;-1.506;2022-07-18T00:52:50;27.50;59.80
34644;DHT22;26931;43.498;-1.506;2022-07-18T00:55:16;27.40;59.90
34644;DHT22;26931;43.498;-1.506;2022-07-18T00:57:42;27.50;60.10
34644;DHT22;26931;43.498;-1.506;2022-07-18T01:00:09;27.40;60.40
34644;DHT22;26931;43.498;-1.506;2022-07-18T01:02:54;27.20;60.50
34644;DHT22;26931;43.498;-1.506;2022-07-18T01:05:20;27.40;60.90
34644;DHT22;26931;43.498;-1.506;2022-07-18T01:07:45;27.50;61.10
34644;DHT22;26931;43.498;-1.506;2022-07-18T01:10:11;27.50;61.20
34644;DHT22;26931;43.498;-1.506;2022-07-18T01:12:40;27.30;61.20
34644;DHT22;26931;43.498;-1.506;2022-07-18T01:15:06;27.30;61.20
34644;DHT22;26931;43.498;-1.506;2022-07-18T01:17:32;27.30;61.40
34644;DHT22;26931;43.498;-1.506;2022-07-18T01:19:58;27.30;61.60
34644;DHT22;26931;43.498;-1.506;2022-07-18T01:22:24;27.30;61.70
34644;DHT22;26931;43.498;-1.506;2022-07-18T01:24:50;27.20;61.70
34644;DHT22;26931;43.498;-1.506;2022-07-18T01:27:17;27.20;62.00
34644;DHT22;26931;43.498;-1.506;2022-07-18T01:29:43;27.30;62.40
34644;DHT22;26931;43.498;-1.506;2022-07-18T01:32:09;27.10;62.40
34644;DHT22;26931;43.498;-1.506;2022-07-18T01:34:36;27.10;62.70
34644;DHT22;26931;43.498;-1.506;2022-07-18T01:37:02;27.00;62.90
34644;DHT22;26931;43.498;-1.506;2022-07-18T01:39:28;27.10;63.20
34644;DHT22;26931;43.498;-1.506;2022-07-18T01:41:54;27.10;63.40
34644;DHT22;26931;43.498;-1.506;2022-07-18T01:44:20;27.00;63.50
34644;DHT22;26931;43.498;-1.506;2022-07-18T01:46:46;26.80;63.60
34644;DHT22;26931;43.498;-1.506;2022-07-18T01:49:12;27.00;64.10
34644;DHT22;26931;43.498;-1.506;2022-07-18T01:51:38;26.80;64.30
34644;DHT22;26931;43.498;-1.506;2022-07-18T01:54:04;26.80;64.50
34644;DHT22;26931;43.498;-1.506;2022-07-18T01:56:29;26.70;64.70
34644;DHT22;26931;43.498;-1.506;2022-07-18T01:58:55;26.70;65.00
34644;DHT22;26931;43.498;-1.506;2022-07-18T02:01:24;26.80;65.50
34644;DHT22;26931;43.498;-1.506;2022-07-18T02:03:49;26.60;65.50
34644;DHT22;26931;43.498;-1.506;2022-07-18T02:06:15;26.60;65.70
34644;DHT22;26931;43.498;-1.506;2022-07-18T02:08:41;26.80;66.00
34644;DHT22;26931;43.498;-1.506;2022-07-18T02:11:10;26.60;66.00
34644;DHT22;26931;43.498;-1.506;2022-07-18T02:13:37;26.50;66.20
34644;DHT22;26931;43.498;-1.506;2022-07-18T02:16:03;26.50;66.40
34644;DHT22;26931;43.498;-1.506;2022-07-18T02:18:29;26.60;67.00
34644;DHT22;26931;43.498;-1.506;2022-07-18T02:21:01;26.50;67.10
34644;DHT22;26931;43.498;-1.506;2022-07-18T02:23:26;26.30;67.00
34644;DHT22;26931;43.498;-1.506;2022-07-18T02:25:53;26.40;67.20
34644;DHT22;26931;43.498;-1.506;2022-07-18T02:28:19;26.30;67.20
34644;DHT22;26931;43.498;-1.506;2022-07-18T02:30:45;26.30;67.50
34644;DHT22;26931;43.498;-1.506;2022-07-18T02:33:10;26.30;67.80
34644;DHT22;26931;43.498;-1.506;2022-07-18T02:35:36;26.30;67.90
34644;DHT22;26931;43.498;-1.506;2022-07-18T02:38:02;26.40;68.10
34644;DHT22;26931;43.498;-1.506;2022-07-18T02:40:28;26.30;68.10
34644;DHT22;26931;43.498;-1.506;2022-07-18T02:42:54;26.20;68.30
34644;DHT22;26931;43.498;-1.506;2022-07-18T02:45:20;26.20;68.40
34644;DHT22;26931;43.498;-1.506;2022-07-18T02:47:45;26.40;68.80
34644;DHT22;26931;43.498;-1.506;2022-07-18T02:50:11;26.20;68.70
34644;DHT22;26931;43.498;-1.506;2022-07-18T02:52:38;26.10;68.70
34644;DHT22;26931;43.498;-1.506;2022-07-18T02:55:05;26.10;68.80
34644;DHT22;26931;43.498;-1.506;2022-07-18T02:57:31;26.10;69.00
34644;DHT22;26931;43.498;-1.506;2022-07-18T02:59:57;26.00;69.10
34644;DHT22;26931;43.498;-1.506;2022-07-18T03:02:23;26.30;69.30
34644;DHT22;26931;43.498;-1.506;2022-07-18T03:04:49;26.10;69.20
34644;DHT22;26931;43.498;-1.506;2022-07-18T03:07:15;26.10;69.00
34644;DHT22;26931;43.498;-1.506;2022-07-18T03:09:41;26.00;69.00
34644;DHT22;26931;43.498;-1.506;2022-07-18T03:12:07;26.00;69.20
34644;DHT22;26931;43.498;-1.506;2022-07-18T03:14:32;26.00;69.30
34644;DHT22;26931;43.498;-1.506;2022-07-18T03:16:58;26.00;69.30
34644;DHT22;26931;43.498;-1.506;2022-07-18T03:19:24;25.90;69.40
34644;DHT22;26931;43.498;-1.506;2022-07-18T03:21:50;25.90;69.60
34644;DHT22;26931;43.498;-1.506;2022-07-18T03:24:16;25.80;69.80
34644;DHT22;26931;43.498;-1.506;2022-07-18T03:26:42;25.90;70.00
34644;DHT22;26931;43.498;-1.506;2022-07-18T03:29:08;25.80;70.30
34644;DHT22;26931;43.498;-1.506;2022-07-18T03:31:34;25.80;70.50
34644;DHT22;26931;43.498;-1.506;2022-07-18T03:33:59;25.80;70.70
34644;DHT22;26931;43.498;-1.506;2022-07-18T03:36:25;25.70;70.80
34644;DHT22;26931;43.498;-1.506;2022-07-18T03:38:51;25.80;71.20
34644;DHT22;26931;43.498;-1.506;2022-07-18T03:41:17;25.70;71.20
34644;DHT22;26931;43.498;-1.506;2022-07-18T03:43:43;25.80;71.30
34644;DHT22;26931;43.498;-1.506;2022-07-18T03:46:08;25.70;71.30
34644;DHT22;26931;43.498;-1.506;2022-07-18T03:48:34;25.70;71.40
34644;DHT22;26931;43.498;-1.506;2022-07-18T03:51:01;25.70;71.40
34644;DHT22;26931;43.498;-1.506;2022-07-18T03:53:26;25.70;71.40
34644;DHT22;26931;43.498;-1.506;2022-07-18T03:55:52;25.70;71.50
34644;DHT22;26931;43.498;-1.506;2022-07-18T03:58:18;25.60;71.50
34644;DHT22;26931;43.498;-1.506;2022-07-18T04:00:44;25.50;71.80
34644;DHT22;26931;43.498;-1.506;2022-07-18T04:03:10;25.50;72.10
34644;DHT22;26931;43.498;-1.506;2022-07-18T04:05:35;25.60;72.20
34644;DHT22;26931;43.498;-1.506;2022-07-18T04:08:04;25.40;72.40
34644;DHT22;26931;43.498;-1.506;2022-07-18T04:10:30;25.40;72.60
34644;DHT22;26931;43.498;-1.506;2022-07-18T04:12:56;25.40;72.60
34644;DHT22;26931;43.498;-1.506;2022-07-18T04:15:23;25.50;72.80
34644;DHT22;26931;43.498;-1.506;2022-07-18T04:17:49;25.50;72.90
34644;DHT22;26931;43.498;-1.506;2022-07-18T04:20:15;25.50;72.90
34644;DHT22;26931;43.498;-1.506;2022-07-18T04:25:11;25.40;73.20
34644;DHT22;26931;43.498;-1.506;2022-07-18T04:27:37;25.40;73.30
34644;DHT22;26931;43.498;-1.506;2022-07-18T04:30:03;25.50;73.40
34644;DHT22;26931;43.498;-1.506;2022-07-18T04:32:30;25.30;73.40
34644;DHT22;26931;43.498;-1.506;2022-07-18T04:34:55;25.40;73.50
34644;DHT22;26931;43.498;-1.506;2022-07-18T04:37:21;25.40;73.70
34644;DHT22;26931;43.498;-1.506;2022-07-18T04:39:47;25.40;73.60
34644;DHT22;26931;43.498;-1.506;2022-07-18T04:42:13;25.40;73.70
34644;DHT22;26931;43.498;-1.506;2022-07-18T04:44:39;25.20;73.70
34644;DHT22;26931;43.498;-1.506;2022-07-18T04:47:05;25.30;73.80
34644;DHT22;26931;43.498;-1.506;2022-07-18T04:49:30;25.30;73.90
34644;DHT22;26931;43.498;-1.506;2022-07-18T04:51:56;25.40;73.90
34644;DHT22;26931;43.498;-1.506;2022-07-18T04:54:22;25.40;73.70
34644;DHT22;26931;43.498;-1.506;2022-07-18T04:56:48;25.40;73.50
34644;DHT22;26931;43.498;-1.506;2022-07-18T04:59:14;25.40;73.40
34644;DHT22;26931;43.498;-1.506;2022-07-18T05:01:40;25.40;73.40
34644;DHT22;26931;43.498;-1.506;2022-07-18T05:04:06;25.60;73.50
34644;DHT22;26931;43.498;-1.506;2022-07-18T05:06:32;25.50;73.40
34644;DHT22;26931;43.498;-1.506;2022-07-18T05:08:58;25.50;73.30
34644;DHT22;26931;43.498;-1.506;2022-07-18T05:11:24;25.50;73.30
34644;DHT22;26931;43.498;-1.506;2022-07-18T05:13:49;25.60;73.50
34644;DHT22;26931;43.498;-1.506;2022-07-18T05:16:15;25.40;73.60
34644;DHT22;26931;43.498;-1.506;2022-07-18T05:18:41;25.50;73.80
34644;DHT22;26931;43.498;-1.506;2022-07-18T05:21:10;25.50;73.50
34644;DHT22;26931;43.498;-1.506;2022-07-18T05:23:36;25.50;73.50
34644;DHT22;26931;43.498;-1.506;2022-07-18T05:26:02;25.50;73.20
34644;DHT22;26931;43.498;-1.506;2022-07-18T05:28:28;25.60;73.10
34644;DHT22;26931;43.498;-1.506;2022-07-18T05:30:57;25.60;73.70
34644;DHT22;26931;43.498;-1.506;2022-07-18T05:33:23;25.60;72.80
34644;DHT22;26931;43.498;-1.506;2022-07-18T05:35:49;25.70;72.70
34644;DHT22;26931;43.498;-1.506;2022-07-18T05:38:17;25.70;72.70
34644;DHT22;26931;43.498;-1.506;2022-07-18T05:40:43;25.70;72.60
34644;DHT22;26931;43.498;-1.506;2022-07-18T05:43:12;25.70;72.40
34644;DHT22;26931;43.498;-1.506;2022-07-18T05:45:38;25.80;72.50
34644;DHT22;26931;43.498;-1.506;2022-07-18T05:48:04;25.80;72.40
34644;DHT22;26931;43.498;-1.506;2022-07-18T05:50:30;25.80;72.40
34644;DHT22;26931;43.498;-1.506;2022-07-18T05:52:56;25.80;72.20
34644;DHT22;26931;43.498;-1.506;2022-07-18T05:55:22;25.80;72.10
34644;DHT22;26931;43.498;-1.506;2022-07-18T05:57:48;25.80;72.10
34644;DHT22;26931;43.498;-1.506;2022-07-18T06:00:15;25.90;71.90
34644;DHT22;26931;43.498;-1.506;2022-07-18T06:02:41;25.90;71.80
34644;DHT22;26931;43.498;-1.506;2022-07-18T06:05:07;26.10;71.80
34644;DHT22;26931;43.498;-1.506;2022-07-18T06:07:33;26.00;72.50
34644;DHT22;26931;43.498;-1.506;2022-07-18T06:09:59;26.00;71.50
34644;DHT22;26931;43.498;-1.506;2022-07-18T06:12:25;25.80;71.20
34644;DHT22;26931;43.498;-1.506;2022-07-18T06:14:54;25.90;71.30
34644;DHT22;26931;43.498;-1.506;2022-07-18T06:17:20;25.90;71.20
34644;DHT22;26931;43.498;-1.506;2022-07-18T06:19:46;25.90;71.10
34644;DHT22;26931;43.498;-1.506;2022-07-18T06:22:15;26.00;71.00
34644;DHT22;26931;43.498;-1.506;2022-07-18T06:24:40;26.00;70.60
34644;DHT22;26931;43.498;-1.506;2022-07-18T06:27:06;26.10;70.30
34644;DHT22;26931;43.498;-1.506;2022-07-18T06:29:32;26.20;70.20
34644;DHT22;26931;43.498;-1.506;2022-07-18T06:31:58;26.20;70.00
34644;DHT22;26931;43.498;-1.506;2022-07-18T06:34:24;26.20;69.80
34644;DHT22;26931;43.498;-1.506;2022-07-18T06:36:50;26.20;69.70
34644;DHT22;26931;43.498;-1.506;2022-07-18T06:39:16;26.30;69.50
34644;DHT22;26931;43.498;-1.506;2022-07-18T06:41:44;26.30;69.40
34644;DHT22;26931;43.498;-1.506;2022-07-18T06:44:10;26.40;69.40
34644;DHT22;26931;43.498;-1.506;2022-07-18T06:46:36;26.30;69.10
34644;DHT22;26931;43.498;-1.506;2022-07-18T06:49:03;26.50;69.20
34644;DHT22;26931;43.498;-1.506;2022-07-18T06:51:32;26.40;69.10
34644;DHT22;26931;43.498;-1.506;2022-07-18T06:53:58;26.40;68.90
34644;DHT22;26931;43.498;-1.506;2022-07-18T06:56:24;26.50;68.70
34644;DHT22;26931;43.498;-1.506;2022-07-18T06:58:50;26.50;68.60
34644;DHT22;26931;43.498;-1.506;2022-07-18T07:01:17;26.50;68.40
34644;DHT22;26931;43.498;-1.506;2022-07-18T07:03:43;26.60;68.40
34644;DHT22;26931;43.498;-1.506;2022-07-18T07:06:09;26.60;68.40
34644;DHT22;26931;43.498;-1.506;2022-07-18T07:08:35;26.70;68.30
34644;DHT22;26931;43.498;-1.506;2022-07-18T07:11:01;26.80;68.20
34644;DHT22;26931;43.498;-1.506;2022-07-18T07:13:27;27.00;68.30
34644;DHT22;26931;43.498;-1.506;2022-07-18T07:15:53;26.70;68.00
34644;DHT22;26931;43.498;-1.506;2022-07-18T07:18:18;26.90;68.10
34644;DHT22;26931;43.498;-1.506;2022-07-18T07:20:45;26.90;67.90
34644;DHT22;26931;43.498;-1.506;2022-07-18T07:23:11;27.00;67.90
34644;DHT22;26931;43.498;-1.506;2022-07-18T07:25:37;27.10;67.80
34644;DHT22;26931;43.498;-1.506;2022-07-18T07:28:04;27.20;67.80
34644;DHT22;26931;43.498;-1.506;2022-07-18T07:30:30;27.20;67.60
34644;DHT22;26931;43.498;-1.506;2022-07-18T07:32:56;27.20;67.40
34644;DHT22;26931;43.498;-1.506;2022-07-18T07:35:22;27.30;67.40
34644;DHT22;26931;43.498;-1.506;2022-07-18T07:37:49;27.50;67.40
34644;DHT22;26931;43.498;-1.506;2022-07-18T07:40:15;27.40;67.20
34644;DHT22;26931;43.498;-1.506;2022-07-18T07:42:42;27.50;67.20
34644;DHT22;26931;43.498;-1.506;2022-07-18T07:45:08;27.50;67.00
34644;DHT22;26931;43.498;-1.506;2022-07-18T07:47:35;27.60;66.80
34644;DHT22;26931;43.498;-1.506;2022-07-18T07:50:01;27.70;66.70
34644;DHT22;26931;43.498;-1.506;2022-07-18T07:52:27;28.10;66.30
34644;DHT22;26931;43.498;-1.506;2022-07-18T07:54:54;28.90;64.40
34644;DHT22;26931;43.498;-1.506;2022-07-18T07:57:20;30.20;61.10
34644;DHT22;26931;43.498;-1.506;2022-07-18T07:59:46;30.30;60.80
34644;DHT22;26931;43.498;-1.506;2022-07-18T08:02:12;29.90;62.00
34644;DHT22;26931;43.498;-1.506;2022-07-18T08:04:38;29.60;62.80
34644;DHT22;26931;43.498;-1.506;2022-07-18T08:07:03;29.60;63.50
34644;DHT22;26931;43.498;-1.506;2022-07-18T08:09:29;29.50;63.70
34644;DHT22;26931;43.498;-1.506;2022-07-18T08:11:55;29.60;63.70
34644;DHT22;26931;43.498;-1.506;2022-07-18T08:14:21;29.60;63.60
34644;DHT22;26931;43.498;-1.506;2022-07-18T08:16:47;29.80;63.40
34644;DHT22;26931;43.498;-1.506;2022-07-18T08:19:13;29.90;63.40
34644;DHT22;26931;43.498;-1.506;2022-07-18T08:21:39;29.90;63.20
34644;DHT22;26931;43.498;-1.506;2022-07-18T08:24:04;29.90;63.00
34644;DHT22;26931;43.498;-1.506;2022-07-18T08:26:30;30.10;62.90
34644;DHT22;26931;43.498;-1.506;2022-07-18T08:28:56;30.20;62.70
34644;DHT22;26931;43.498;-1.506;2022-07-18T08:31:22;30.30;62.50
34644;DHT22;26931;43.498;-1.506;2022-07-18T08:33:48;30.40;62.30
34644;DHT22;26931;43.498;-1.506;2022-07-18T08:36:14;30.50;62.00
34644;DHT22;26931;43.498;-1.506;2022-07-18T08:38:40;30.60;62.00
34644;DHT22;26931;43.498;-1.506;2022-07-18T08:41:05;30.70;61.70
34644;DHT22;26931;43.498;-1.506;2022-07-18T08:43:31;30.90;61.50
34644;DHT22;26931;43.498;-1.506;2022-07-18T08:46:01;30.90;61.10
34644;DHT22;26931;43.498;-1.506;2022-07-18T08:48:27;31.10;61.20
34644;DHT22;26931;43.498;-1.506;2022-07-18T08:50:52;31.10;61.10
34644;DHT22;26931;43.498;-1.506;2022-07-18T08:53:18;31.30;60.90
34644;DHT22;26931;43.498;-1.506;2022-07-18T08:55:45;31.40;60.70
34644;DHT22;26931;43.498;-1.506;2022-07-18T08:58:11;31.40;60.50
34644;DHT22;26931;43.498;-1.506;2022-07-18T09:00:37;31.60;60.30
34644;DHT22;26931;43.498;-1.506;2022-07-18T09:03:03;31.60;60.00
34644;DHT22;26931;43.498;-1.506;2022-07-18T09:05:30;31.70;59.90
34644;DHT22;26931;43.498;-1.506;2022-07-18T09:10:42;31.90;59.60
34644;DHT22;26931;43.498;-1.506;2022-07-18T09:13:12;32.00;59.30
34644;DHT22;26931;43.498;-1.506;2022-07-18T09:15:55;32.10;59.00
34644;DHT22;26931;43.498;-1.506;2022-07-18T09:18:31;32.10;58.90
34644;DHT22;26931;43.498;-1.506;2022-07-18T09:20:58;32.20;58.80
34644;DHT22;26931;43.498;-1.506;2022-07-18T09:23:27;32.20;58.60
34644;DHT22;26931;43.498;-1.506;2022-07-18T09:25:52;32.30;58.40
34644;DHT22;26931;43.498;-1.506;2022-07-18T09:28:18;32.40;58.20
34644;DHT22;26931;43.498;-1.506;2022-07-18T09:30:43;32.40;58.10
34644;DHT22;26931;43.498;-1.506;2022-07-18T09:33:09;32.60;58.00
34644;DHT22;26931;43.498;-1.506;2022-07-18T09:38:06;32.70;58.00
34644;DHT22;26931;43.498;-1.506;2022-07-18T09:40:36;32.80;57.90
34644;DHT22;26931;43.498;-1.506;2022-07-18T09:43:03;32.80;57.80
34644;DHT22;26931;43.498;-1.506;2022-07-18T09:45:31;32.90;57.70
34644;DHT22;26931;43.498;-1.506;2022-07-18T09:47:59;33.00;57.60
34644;DHT22;26931;43.498;-1.506;2022-07-18T09:50:26;33.00;57.40
34644;DHT22;26931;43.498;-1.506;2022-07-18T09:53:12;33.00;57.30
34644;DHT22;26931;43.498;-1.506;2022-07-18T09:55:44;33.10;57.30
34644;DHT22;26931;43.498;-1.506;2022-07-18T09:58:10;33.20;57.30
34644;DHT22;26931;43.498;-1.506;2022-07-18T10:00:36;33.20;56.90
34644;DHT22;26931;43.498;-1.506;2022-07-18T10:03:03;33.30;56.90
34644;DHT22;26931;43.498;-1.506;2022-07-18T10:05:30;33.40;56.60
34644;DHT22;26931;43.498;-1.506;2022-07-18T10:07:56;33.50;56.50
34644;DHT22;26931;43.498;-1.506;2022-07-18T10:10:21;33.50;56.40
34644;DHT22;26931;43.498;-1.506;2022-07-18T10:12:51;33.60;56.30
34644;DHT22;26931;43.498;-1.506;2022-07-18T10:15:19;33.70;56.10
34644;DHT22;26931;43.498;-1.506;2022-07-18T10:17:45;33.80;56.20
34644;DHT22;26931;43.498;-1.506;2022-07-18T10:20:14;33.90;56.00
34644;DHT22;26931;43.498;-1.506;2022-07-18T10:22:40;34.00;55.90
34644;DHT22;26931;43.498;-1.506;2022-07-18T10:25:13;34.00;55.70
34644;DHT22;26931;43.498;-1.506;2022-07-18T10:28:01;34.10;55.50
34644;DHT22;26931;43.498;-1.506;2022-07-18T10:30:29;34.10;55.20
34644;DHT22;26931;43.498;-1.506;2022-07-18T10:32:55;34.40;55.20
34644;DHT22;26931;43.498;-1.506;2022-07-18T10:35:57;34.40;54.80
34644;DHT22;26931;43.498;-1.506;2022-07-18T10:38:25;34.30;55.30
34644;DHT22;26931;43.498;-1.506;2022-07-18T10:41:01;34.30;54.80
34644;DHT22;26931;43.498;-1.506;2022-07-18T10:43:30;34.40;54.80
34644;DHT22;26931;43.498;-1.506;2022-07-18T10:45:57;34.40;54.60
34644;DHT22;26931;43.498;-1.506;2022-07-18T10:51:08;34.50;54.40
34644;DHT22;26931;43.498;-1.506;2022-07-18T10:56:22;34.60;54.20
34644;DHT22;26931;43.498;-1.506;2022-07-18T10:59:14;34.70;53.90
34644;DHT22;26931;43.498;-1.506;2022-07-18T11:01:46;34.70;53.70
34644;DHT22;26931;43.498;-1.506;2022-07-18T11:04:26;34.80;53.50
34644;DHT22;26931;43.498;-1.506;2022-07-18T11:06:55;34.80;53.40
34644;DHT22;26931;43.498;-1.506;2022-07-18T11:09:31;34.80;53.30
34644;DHT22;26931;43.498;-1.506;2022-07-18T11:12:19;34.90;53.20
34644;DHT22;26931;43.498;-1.506;2022-07-18T11:20:22;34.90;52.90
34644;DHT22;26931;43.498;-1.506;2022-07-18T11:22:47;35.00;52.90
34644;DHT22;26931;43.498;-1.506;2022-07-18T11:25:13;35.10;52.70
34644;DHT22;26931;43.498;-1.506;2022-07-18T11:27:40;35.10;52.50
34644;DHT22;26931;43.498;-1.506;2022-07-18T11:30:06;35.20;52.50
34644;DHT22;26931;43.498;-1.506;2022-07-18T11:32:31;35.10;52.40
34644;DHT22;26931;43.498;-1.506;2022-07-18T11:34:57;35.20;52.40
34644;DHT22;26931;43.498;-1.506;2022-07-18T11:37:23;35.20;52.40
34644;DHT22;26931;43.498;-1.506;2022-07-18T11:39:49;35.20;52.30
34644;DHT22;26931;43.498;-1.506;2022-07-18T11:42:14;35.20;52.30
34644;DHT22;26931;43.498;-1.506;2022-07-18T11:44:42;35.20;52.20
34644;DHT22;26931;43.498;-1.506;2022-07-18T11:47:08;35.20;52.30
34644;DHT22;26931;43.498;-1.506;2022-07-18T11:49:34;35.20;52.20
34644;DHT22;26931;43.498;-1.506;2022-07-18T11:52:00;35.20;52.20
34644;DHT22;26931;43.498;-1.506;2022-07-18T11:54:26;35.20;52.20
34644;DHT22;26931;43.498;-1.506;2022-07-18T11:56:54;35.10;52.10
34644;DHT22;26931;43.498;-1.506;2022-07-18T11:59:20;35.10;52.00
34644;DHT22;26931;43.498;-1.506;2022-07-18T12:01:46;35.10;52.10
34644;DHT22;26931;43.498;-1.506;2022-07-18T12:04:18;35.20;52.10
34644;DHT22;26931;43.498;-1.506;2022-07-18T12:06:44;35.10;52.10
34644;DHT22;26931;43.498;-1.506;2022-07-18T12:09:10;35.20;51.90
34644;DHT22;26931;43.498;-1.506;2022-07-18T12:11:37;35.20;51.90
34644;DHT22;26931;43.498;-1.506;2022-07-18T12:16:33;35.20;51.90
34644;DHT22;26931;43.498;-1.506;2022-07-18T12:19:10;35.20;51.80
34644;DHT22;26931;43.498;-1.506;2022-07-18T12:24:25;35.20;51.40
34644;DHT22;26931;43.498;-1.506;2022-07-18T12:27:11;35.20;51.20
34644;DHT22;26931;43.498;-1.506;2022-07-18T12:29:58;35.20;50.90
34644;DHT22;26931;43.498;-1.506;2022-07-18T12:32:25;35.20;50.50
34644;DHT22;26931;43.498;-1.506;2022-07-18T12:34:59;35.40;50.50
34644;DHT22;26931;43.498;-1.506;2022-07-18T12:37:25;35.30;50.30
34644;DHT22;26931;43.498;-1.506;2022-07-18T12:39:58;35.30;50.00
34644;DHT22;26931;43.498;-1.506;2022-07-18T12:42:35;35.30;49.80
34644;DHT22;26931;43.498;-1.506;2022-07-18T12:45:01;35.40;49.60
34644;DHT22;26931;43.498;-1.506;2022-07-18T12:47:27;35.40;49.40
34644;DHT22;26931;43.498;-1.506;2022-07-18T12:49:53;35.30;49.10
34644;DHT22;26931;43.498;-1.506;2022-07-18T12:52:18;35.40;49.00
34644;DHT22;26931;43.498;-1.506;2022-07-18T12:54:44;35.40;48.70
34644;DHT22;26931;43.498;-1.506;2022-07-18T12:57:10;35.40;48.70
34644;DHT22;26931;43.498;-1.506;2022-07-18T12:59:36;35.40;48.30
34644;DHT22;26931;43.498;-1.506;2022-07-18T13:02:02;35.40;47.90
34644;DHT22;26931;43.498;-1.506;2022-07-18T13:04:28;35.50;47.90
34644;DHT22;26931;43.498;-1.506;2022-07-18T13:06:53;35.50;47.60
34644;DHT22;26931;43.498;-1.506;2022-07-18T13:09:19;35.50;47.30
34644;DHT22;26931;43.498;-1.506;2022-07-18T13:11:45;35.50;47.30
34644;DHT22;26931;43.498;-1.506;2022-07-18T13:14:13;35.40;46.80
34644;DHT22;26931;43.498;-1.506;2022-07-18T13:16:39;35.60;46.80
34644;DHT22;26931;43.498;-1.506;2022-07-18T13:19:05;35.60;46.60
34644;DHT22;26931;43.498;-1.506;2022-07-18T13:21:30;35.60;46.30
34644;DHT22;26931;43.498;-1.506;2022-07-18T13:23:56;35.70;46.30
34644;DHT22;26931;43.498;-1.506;2022-07-18T13:26:22;35.60;46.20
34644;DHT22;26931;43.498;-1.506;2022-07-18T13:28:47;35.60;46.20
34644;DHT22;26931;43.498;-1.506;2022-07-18T13:31:13;35.60;46.00
34644;DHT22;26931;43.498;-1.506;2022-07-18T13:33:39;35.70;46.00
34644;DHT22;26931;43.498;-1.506;2022-07-18T13:36:05;35.70;45.70
34644;DHT22;26931;43.498;-1.506;2022-07-18T13:38:31;35.70;45.60
34644;DHT22;26931;43.498;-1.506;2022-07-18T13:40:57;35.70;45.60
34644;DHT22;26931;43.498;-1.506;2022-07-18T13:43:23;35.80;45.60
34644;DHT22;26931;43.498;-1.506;2022-07-18T13:45:51;35.90;45.50
34644;DHT22;26931;43.498;-1.506;2022-07-18T13:48:17;35.80;45.40
34644;DHT22;26931;43.498;-1.506;2022-07-18T13:50:43;35.90;45.40
34644;DHT22;26931;43.498;-1.506;2022-07-18T13:53:08;35.90;45.30
34644;DHT22;26931;43.498;-1.506;2022-07-18T13:55:34;36.00;45.30
34644;DHT22;26931;43.498;-1.506;2022-07-18T13:58:00;36.00;45.10
34644;DHT22;26931;43.498;-1.506;2022-07-18T14:00:25;36.00;45.00
34644;DHT22;26931;43.498;-1.506;2022-07-18T14:02:51;36.10;45.20
34644;DHT22;26931;43.498;-1.506;2022-07-18T14:05:17;36.20;45.00
34644;DHT22;26931;43.498;-1.506;2022-07-18T14:07:43;36.10;44.90
34644;DHT22;26931;43.498;-1.506;2022-07-18T14:10:10;36.10;44.80
34644;DHT22;26931;43.498;-1.506;2022-07-18T14:12:36;36.20;44.80
34644;DHT22;26931;43.498;-1.506;2022-07-18T14:15:02;36.20;44.80
34644;DHT22;26931;43.498;-1.506;2022-07-18T14:17:28;36.20;44.80
34644;DHT22;26931;43.498;-1.506;2022-07-18T14:19:56;36.20;44.70
34644;DHT22;26931;43.498;-1.506;2022-07-18T14:22:21;36.20;44.60
34644;DHT22;26931;43.498;-1.506;2022-07-18T14:24:47;36.20;44.40
34644;DHT22;26931;43.498;-1.506;2022-07-18T14:27:13;36.30;44.40
34644;DHT22;26931;43.498;-1.506;2022-07-18T14:29:39;36.30;44.50
34644;DHT22;26931;43.498;-1.506;2022-07-18T14:32:05;36.30;44.20
34644;DHT22;26931;43.498;-1.506;2022-07-18T14:34:30;36.40;44.20
34644;DHT22;26931;43.498;-1.506;2022-07-18T14:36:56;36.40;44.00
34644;DHT22;26931;43.498;-1.506;2022-07-18T14:39:22;36.50;44.00
34644;DHT22;26931;43.498;-1.506;2022-07-18T14:41:48;36.50;44.00
34644;DHT22;26931;43.498;-1.506;2022-07-18T14:44:14;36.50;44.00
34644;DHT22;26931;43.498;-1.506;2022-07-18T14:46:40;36.60;44.00
34644;DHT22;26931;43.498;-1.506;2022-07-18T14:49:05;36.50;43.80
34644;DHT22;26931;43.498;-1.506;2022-07-18T14:51:31;36.60;43.80
34644;DHT22;26931;43.498;-1.506;2022-07-18T14:53:58;36.60;43.80
34644;DHT22;26931;43.498;-1.506;2022-07-18T14:56:24;36.50;43.70
34644;DHT22;26931;43.498;-1.506;2022-07-18T14:58:51;36.60;43.60
34644;DHT22;26931;43.498;-1.506;2022-07-18T15:01:17;36.60;43.50
34644;DHT22;26931;43.498;-1.506;2022-07-18T15:03:45;36.60;43.50
34644;DHT22;26931;43.498;-1.506;2022-07-18T15:06:11;36.60;43.40
34644;DHT22;26931;43.498;-1.506;2022-07-18T15:08:36;36.60;43.30
34644;DHT22;26931;43.498;-1.506;2022-07-18T15:11:02;36.60;43.20
34644;DHT22;26931;43.498;-1.506;2022-07-18T15:13:28;36.60;43.10
34644;DHT22;26931;43.498;-1.506;2022-07-18T15:15:54;36.70;43.00
34644;DHT22;26931;43.498;-1.506;2022-07-18T15:18:20;36.70;43.00
34644;DHT22;26931;43.498;-1.506;2022-07-18T15:20:46;36.80;43.00
34644;DHT22;26931;43.498;-1.506;2022-07-18T15:23:12;36.80;42.90
34644;DHT22;26931;43.498;-1.506;2022-07-18T15:25:37;36.80;42.80
34644;DHT22;26931;43.498;-1.506;2022-07-18T15:28:06;36.80;42.80
34644;DHT22;26931;43.498;-1.506;2022-07-18T15:30:32;36.70;42.70
34644;DHT22;26931;43.498;-1.506;2022-07-18T15:32:58;36.80;43.30
34644;DHT22;26931;43.498;-1.506;2022-07-18T15:35:23;36.70;42.50
34644;DHT22;26931;43.498;-1.506;2022-07-18T15:37:49;36.70;42.30